createdAt,value
2019-05-29T00:00:36.518Z,8.37
2019-05-29T00:01:36.474Z,8.34
2019-05-29T00:02:36.483Z,8.31
2019-05-29T00:03:36.455Z,8.31
2019-05-29T00:04:36.433Z,8.28
2019-05-29T00:05:36.431Z,8.27
2019-05-29T00:06:36.432Z,8.24
2019-05-29T00:07:36.399Z,8.24
2019-05-29T00:08:36.390Z,8.16
2019-05-29T00:09:36.385Z,8.15
2019-05-29T00:10:36.369Z,8.13
2019-05-29T00:11:36.399Z,8.12
2019-05-29T00:12:36.346Z,8.08
2019-05-29T00:13:36.349Z,8.03
2019-05-29T00:14:36.376Z,8.01
2019-05-29T00:15:36.334Z,7.97
2019-05-29T00:16:36.348Z,7.97
2019-05-29T00:17:36.302Z,7.93
2019-05-29T00:18:36.313Z,7.91
2019-05-29T00:19:36.279Z,7.88
2019-05-29T00:20:36.248Z,7.87
2019-05-29T00:21:36.257Z,7.85
2019-05-29T00:22:36.273Z,7.82
2019-05-29T00:23:36.235Z,7.80
2019-05-29T00:24:36.236Z,7.76
2019-05-29T00:25:36.235Z,7.76
2019-05-29T00:26:36.215Z,7.73
2019-05-29T00:27:36.194Z,7.72
2019-05-29T00:28:36.213Z,7.69
2019-05-29T00:29:36.180Z,7.67
2019-05-29T00:30:36.198Z,7.66
2019-05-29T00:31:36.170Z,7.61
2019-05-29T00:32:36.782Z,7.60
2019-05-29T00:33:36.168Z,7.60
2019-05-29T00:34:36.123Z,7.57
2019-05-29T00:35:36.116Z,7.54
2019-05-29T00:36:36.116Z,7.48
2019-05-29T00:37:36.080Z,7.43
2019-05-29T00:38:36.113Z,7.40
2019-05-29T00:39:36.070Z,7.40
2019-05-29T00:40:36.063Z,7.40
2019-05-29T00:41:36.061Z,7.39
2019-05-29T00:42:36.039Z,7.39
2019-05-29T00:43:36.034Z,7.39
2019-05-29T00:44:36.033Z,7.38
2019-05-29T00:45:36.008Z,7.36
2019-05-29T00:46:35.999Z,7.35
2019-05-29T00:47:35.996Z,7.33
2019-05-29T00:48:35.977Z,7.29
2019-05-29T00:49:35.998Z,7.28
2019-05-29T00:50:35.950Z,7.28
2019-05-29T00:51:35.950Z,7.28
2019-05-29T00:52:35.946Z,7.25
2019-05-29T00:53:35.914Z,7.25
2019-05-29T00:54:35.926Z,7.25
2019-05-29T00:55:35.934Z,7.24
2019-05-29T00:56:35.917Z,7.24
2019-05-29T00:57:35.904Z,7.24
2019-05-29T00:58:35.858Z,7.24
2019-05-29T00:59:35.854Z,7.18
2019-05-29T01:00:35.900Z,7.18
2019-05-29T01:01:35.842Z,7.14
2019-05-29T01:02:35.832Z,7.11
2019-05-29T01:03:35.824Z,7.05
2019-05-29T01:04:35.800Z,7.03
2019-05-29T01:05:35.950Z,7.00
2019-05-29T01:06:35.791Z,6.99
2019-05-29T01:07:35.810Z,6.96
2019-05-29T01:08:35.764Z,6.93
2019-05-29T01:09:35.761Z,6.95
2019-05-29T01:10:35.751Z,6.93
2019-05-29T01:11:35.778Z,6.92
2019-05-29T01:12:35.730Z,6.88
2019-05-29T01:13:35.715Z,6.82
2019-05-29T01:14:49.306Z,6.81
2019-05-29T01:15:36.705Z,6.77
2019-05-29T01:16:35.688Z,6.72
2019-05-29T01:17:35.724Z,6.69
2019-05-29T01:18:35.652Z,6.64
2019-05-29T01:19:35.648Z,6.62
2019-05-29T01:20:35.637Z,6.59
2019-05-29T01:21:35.648Z,6.52
2019-05-29T01:22:35.607Z,6.46
2019-05-29T01:23:35.613Z,6.45
2019-05-29T01:24:35.600Z,6.41
2019-05-29T01:25:35.566Z,6.33
2019-05-29T01:26:35.587Z,6.30
2019-05-29T01:27:35.556Z,6.22
2019-05-29T01:28:35.574Z,6.17
2019-05-29T01:29:35.567Z,6.14
2019-05-29T01:30:35.561Z,6.14
2019-05-29T01:31:35.513Z,6.11
2019-05-29T01:32:35.521Z,6.07
2019-05-29T01:33:35.514Z,6.05
2019-05-29T01:34:35.471Z,6.04
2019-05-29T01:35:35.471Z,5.98
2019-05-29T01:36:35.464Z,5.94
2019-05-29T01:37:35.455Z,5.87
2019-05-29T01:38:35.470Z,5.84
2019-05-29T01:39:35.454Z,5.80
2019-05-29T01:40:35.417Z,5.75
2019-05-29T01:41:35.417Z,5.68
2019-05-29T01:42:35.397Z,5.65
2019-05-29T01:43:35.388Z,5.61
2019-05-29T01:44:35.401Z,5.56
2019-05-29T01:45:35.361Z,5.57
2019-05-29T01:46:35.348Z,5.54
2019-05-29T01:47:35.349Z,5.54
2019-05-29T01:48:35.353Z,5.54
2019-05-29T01:49:35.360Z,5.53
2019-05-29T01:50:35.347Z,5.54
2019-05-29T01:51:35.298Z,5.54
2019-05-29T01:52:35.286Z,5.53
2019-05-29T01:53:35.274Z,5.47
2019-05-29T01:54:35.276Z,5.44
2019-05-29T01:55:35.273Z,5.44
2019-05-29T01:56:35.239Z,5.38
2019-05-29T01:57:35.265Z,5.28
2019-05-29T01:58:35.223Z,5.28
2019-05-29T01:59:35.201Z,5.29
2019-05-29T02:00:35.243Z,5.28
2019-05-29T02:01:35.196Z,5.25
2019-05-29T02:02:35.181Z,5.29
2019-05-29T02:03:35.180Z,5.33
2019-05-29T02:04:35.149Z,5.32
2019-05-29T02:05:35.198Z,5.35
2019-05-29T02:06:35.129Z,5.35
2019-05-29T02:07:35.180Z,5.33
2019-05-29T02:08:35.143Z,5.32
2019-05-29T02:09:35.110Z,5.25
2019-05-29T02:10:35.101Z,5.25
2019-05-29T02:11:35.114Z,5.20
2019-05-29T02:12:35.065Z,5.21
2019-05-29T02:13:35.078Z,5.18
2019-05-29T02:14:35.047Z,5.15
2019-05-29T02:15:35.048Z,5.14
2019-05-29T02:16:35.049Z,5.17
2019-05-29T02:17:35.031Z,5.15
2019-05-29T02:18:35.011Z,5.10
2019-05-29T02:19:34.994Z,5.11
2019-05-29T02:20:34.991Z,5.07
2019-05-29T02:21:35.015Z,5.08
2019-05-29T02:22:34.963Z,5.08
2019-05-29T02:23:34.953Z,5.08
2019-05-29T02:24:34.935Z,5.10
2019-05-29T02:25:34.943Z,5.07
2019-05-29T02:26:34.933Z,5.07
2019-05-29T02:27:34.929Z,5.04
2019-05-29T02:28:34.903Z,5.02
2019-05-29T02:29:34.890Z,4.96
2019-05-29T02:30:34.886Z,4.93
2019-05-29T02:31:34.887Z,4.93
2019-05-29T02:32:34.917Z,4.93
2019-05-29T02:33:34.860Z,4.90
2019-05-29T02:34:34.845Z,4.90
2019-05-29T02:35:34.845Z,4.90
2019-05-29T02:36:34.832Z,4.89
2019-05-29T02:37:34.831Z,4.89
2019-05-29T02:38:34.836Z,4.84
2019-05-29T02:39:34.798Z,4.84
2019-05-29T02:40:34.787Z,4.84
2019-05-29T02:41:34.775Z,4.84
2019-05-29T02:42:34.748Z,4.84
2019-05-29T02:43:34.740Z,4.86
2019-05-29T02:44:34.750Z,4.87
2019-05-29T02:45:53.000Z,4.89
2019-05-29T02:46:35.750Z,4.86
2019-05-29T02:47:34.702Z,4.87
2019-05-29T02:48:34.692Z,4.87
2019-05-29T02:49:34.724Z,4.82
2019-05-29T02:50:34.692Z,4.75
2019-05-29T02:51:34.656Z,4.74
2019-05-29T02:52:34.651Z,4.77
2019-05-29T02:53:34.678Z,4.74
2019-05-29T02:54:34.648Z,4.74
2019-05-29T02:55:34.648Z,4.67
2019-05-29T02:56:34.625Z,4.67
2019-05-29T02:57:34.604Z,4.66
2019-05-29T02:58:34.594Z,4.63
2019-05-29T02:59:34.575Z,4.63
2019-05-29T03:00:34.611Z,4.63
2019-05-29T03:01:34.591Z,4.66
2019-05-29T03:02:34.541Z,4.67
2019-05-29T03:03:39.475Z,4.67
2019-05-29T03:04:35.528Z,4.68
2019-05-29T03:05:34.537Z,4.68
2019-05-29T03:06:34.523Z,4.71
2019-05-29T03:07:34.496Z,4.68
2019-05-29T03:08:34.708Z,4.66
2019-05-29T03:09:34.488Z,4.62
2019-05-29T03:10:34.471Z,4.55
2019-05-29T03:11:34.510Z,4.55
2019-05-29T03:12:34.446Z,4.56
2019-05-29T03:13:34.462Z,4.56
2019-05-29T03:14:34.919Z,4.55
2019-05-29T03:15:34.445Z,4.56
2019-05-29T03:16:35.036Z,4.53
2019-05-29T03:17:34.411Z,4.48
2019-05-29T03:18:35.018Z,4.50
2019-05-29T03:19:34.841Z,4.53
2019-05-29T03:20:34.574Z,4.56
2019-05-29T03:21:34.858Z,4.55
2019-05-29T03:22:35.309Z,4.60
2019-05-29T03:23:36.293Z,4.62
2019-05-29T03:24:35.146Z,4.59
2019-05-29T03:25:35.125Z,4.60
2019-05-29T03:26:35.138Z,4.67
2019-05-29T03:27:34.316Z,4.71
2019-05-29T03:28:34.879Z,4.71
2019-05-29T03:29:34.512Z,4.71
2019-05-29T03:30:40.611Z,4.68
2019-05-29T03:31:43.381Z,4.60
2019-05-29T03:32:45.726Z,4.60
2019-05-29T03:33:45.310Z,4.62
2019-05-29T03:34:42.039Z,4.67
2019-05-29T03:35:43.026Z,4.68
2019-05-29T03:36:41.970Z,4.71
2019-05-29T03:37:35.199Z,4.74
2019-05-29T03:38:34.901Z,4.78
2019-05-29T03:39:34.578Z,4.82
2019-05-29T03:40:35.234Z,4.84
2019-05-29T03:41:34.871Z,4.84
2019-05-29T03:42:34.480Z,4.82
2019-05-29T03:43:35.913Z,4.80
2019-05-29T03:44:35.398Z,4.82
2019-05-29T03:45:35.873Z,4.80
2019-05-29T03:46:42.684Z,4.84
2019-05-29T03:47:35.263Z,4.92
2019-05-29T03:48:34.532Z,4.96
2019-05-29T03:49:35.223Z,5.05
2019-05-29T03:50:34.927Z,5.08
2019-05-29T03:51:35.124Z,5.14
2019-05-29T03:52:34.680Z,5.18
2019-05-29T03:53:36.153Z,5.18
2019-05-29T03:54:35.467Z,5.20
2019-05-29T03:55:35.829Z,5.21
2019-05-29T03:56:34.796Z,5.25
2019-05-29T03:57:35.684Z,5.26
2019-05-29T03:58:35.075Z,5.26
2019-05-29T03:59:35.392Z,5.28
2019-05-29T04:00:41.356Z,5.33
2019-05-29T04:01:35.585Z,5.33
2019-05-29T04:02:35.547Z,5.35
2019-05-29T04:03:35.534Z,5.36
2019-05-29T04:04:35.675Z,5.41
2019-05-29T04:05:35.279Z,5.46
2019-05-29T04:06:35.374Z,5.48
2019-05-29T04:07:35.516Z,5.51
2019-05-29T04:08:35.504Z,5.48
2019-05-29T04:09:35.313Z,5.46
2019-05-29T04:10:36.813Z,5.48
2019-05-29T04:11:35.445Z,5.50
2019-05-29T04:12:35.368Z,5.44
2019-05-29T04:13:34.630Z,5.46
2019-05-29T04:14:35.515Z,5.50
2019-05-29T04:15:34.435Z,5.51
2019-05-29T04:16:54.079Z,5.53
2019-05-29T04:17:35.495Z,5.51
2019-05-29T04:18:34.037Z,5.57
2019-05-29T04:19:34.884Z,5.61
2019-05-29T04:20:33.732Z,5.66
2019-05-29T04:21:34.298Z,5.69
2019-05-29T04:22:34.390Z,5.73
2019-05-29T04:23:34.029Z,5.76
2019-05-29T04:24:34.113Z,5.79
2019-05-29T04:25:37.589Z,5.80
2019-05-29T04:26:36.224Z,5.83
2019-05-29T04:27:34.303Z,5.84
2019-05-29T04:28:34.763Z,5.83
2019-05-29T04:29:34.181Z,5.83
2019-05-29T04:30:34.354Z,5.86
2019-05-29T04:31:34.501Z,5.90
2019-05-29T04:32:34.212Z,5.98
2019-05-29T04:33:34.919Z,6.04
2019-05-29T04:34:34.265Z,6.09
2019-05-29T04:35:34.615Z,6.17
2019-05-29T04:36:34.889Z,6.30
2019-05-29T04:37:34.354Z,6.42
2019-05-29T04:38:35.483Z,6.49
2019-05-29T04:39:34.486Z,6.54
2019-05-29T04:40:34.970Z,6.62
2019-05-29T04:41:34.724Z,6.66
2019-05-29T04:42:34.042Z,6.70
2019-05-29T04:43:34.966Z,6.74
2019-05-29T04:44:35.670Z,6.77
2019-05-29T04:45:35.303Z,6.82
2019-05-29T04:46:34.035Z,6.84
2019-05-29T04:47:35.096Z,6.85
2019-05-29T04:48:35.118Z,6.85
2019-05-29T04:49:34.325Z,6.84
2019-05-29T04:50:34.106Z,6.85
2019-05-29T04:51:35.270Z,6.88
2019-05-29T04:52:34.273Z,6.85
2019-05-29T04:53:33.861Z,6.84
2019-05-29T04:54:33.469Z,6.89
2019-05-29T04:55:33.345Z,7.02
2019-05-29T04:56:33.352Z,7.14
2019-05-29T04:57:33.341Z,7.32
2019-05-29T04:58:33.347Z,7.63
2019-05-29T04:59:33.329Z,8.16
2019-05-29T05:00:33.320Z,8.56
2019-05-29T05:01:33.307Z,8.94
2019-05-29T05:02:33.295Z,9.19
2019-05-29T05:03:33.338Z,9.41
2019-05-29T05:04:33.300Z,9.64
2019-05-29T05:05:33.355Z,9.73
2019-05-29T05:06:33.283Z,9.74
2019-05-29T05:07:33.260Z,10.07
2019-05-29T05:08:33.383Z,9.99
2019-05-29T05:09:33.412Z,10.07
2019-05-29T05:10:33.410Z,10.40
2019-05-29T05:11:33.393Z,10.56
2019-05-29T05:12:33.636Z,10.82
2019-05-29T05:13:33.450Z,11.07
2019-05-29T05:14:33.646Z,11.22
2019-05-29T05:15:33.669Z,11.12
2019-05-29T05:16:33.668Z,11.02
2019-05-29T05:17:33.771Z,11.18
2019-05-29T05:18:33.796Z,11.25
2019-05-29T05:19:33.878Z,11.45
2019-05-29T05:20:34.008Z,11.60
2019-05-29T05:21:34.046Z,11.86
2019-05-29T05:22:34.277Z,12.06
2019-05-29T05:23:34.030Z,12.20
2019-05-29T05:24:34.195Z,12.40
2019-05-29T05:25:34.082Z,12.62
2019-05-29T05:26:34.107Z,12.42
2019-05-29T05:27:34.149Z,12.67
2019-05-29T05:28:34.115Z,12.80
2019-05-29T05:29:33.988Z,12.82
2019-05-29T05:30:32.977Z,12.58
2019-05-29T05:31:32.996Z,12.75
2019-05-29T05:32:32.987Z,12.54
2019-05-29T05:33:32.948Z,12.75
2019-05-29T05:34:32.951Z,12.68
2019-05-29T05:35:32.923Z,13.01
2019-05-29T05:36:32.931Z,13.53
2019-05-29T05:37:32.926Z,13.15
2019-05-29T05:38:32.886Z,13.00
2019-05-29T05:39:32.898Z,12.70
2019-05-29T05:40:35.976Z,12.95
2019-05-29T05:41:32.937Z,13.16
2019-05-29T05:42:32.935Z,13.19
2019-05-29T05:43:32.932Z,13.01
2019-05-29T05:44:32.888Z,13.18
2019-05-29T05:45:33.021Z,13.12
2019-05-29T05:46:32.993Z,13.25
2019-05-29T05:47:44.866Z,13.23
2019-05-29T05:48:35.035Z,13.42
2019-05-29T05:49:33.232Z,14.10
2019-05-29T05:50:33.337Z,14.48
2019-05-29T05:51:33.469Z,14.85
2019-05-29T05:52:33.770Z,15.14
2019-05-29T05:53:33.370Z,15.54
2019-05-29T05:54:33.365Z,15.70
2019-05-29T05:55:33.499Z,16.04
2019-05-29T05:56:33.688Z,16.42
2019-05-29T05:57:33.506Z,16.76
2019-05-29T05:58:33.793Z,16.99
2019-05-29T05:59:33.595Z,16.17
2019-05-29T06:00:33.985Z,15.55
2019-05-29T06:01:33.774Z,15.02
2019-05-29T06:02:33.661Z,15.27
2019-05-29T06:03:33.852Z,15.22
2019-05-29T06:04:33.777Z,15.75
2019-05-29T06:05:33.869Z,15.80
2019-05-29T06:06:33.839Z,15.43
2019-05-29T06:07:32.576Z,15.10
2019-05-29T06:08:32.604Z,14.81
2019-05-29T06:09:32.732Z,14.91
2019-05-29T06:10:32.549Z,15.22
2019-05-29T06:11:32.562Z,14.45
2019-05-29T06:12:32.524Z,14.32
2019-05-29T06:13:32.538Z,14.50
2019-05-29T06:14:32.528Z,14.68
2019-05-29T06:15:32.520Z,14.65
2019-05-29T06:16:32.940Z,14.44
2019-05-29T06:17:32.470Z,14.47
2019-05-29T06:18:32.469Z,14.45
2019-05-29T06:19:32.749Z,15.04
2019-05-29T06:20:32.683Z,14.69
2019-05-29T06:21:32.584Z,14.66
2019-05-29T06:22:32.897Z,15.03
2019-05-29T06:23:32.813Z,15.47
2019-05-29T06:24:33.415Z,15.84
2019-05-29T06:25:33.910Z,16.04
2019-05-29T06:26:32.775Z,15.92
2019-05-29T06:27:33.386Z,16.26
2019-05-29T06:28:33.005Z,15.65
2019-05-29T06:29:33.510Z,15.04
2019-05-29T06:30:33.966Z,14.94
2019-05-29T06:31:33.341Z,14.81
2019-05-29T06:32:33.467Z,15.24
2019-05-29T06:33:33.436Z,15.61
2019-05-29T06:34:33.503Z,15.59
2019-05-29T06:35:34.008Z,15.70
2019-05-29T06:36:33.452Z,15.67
2019-05-29T06:37:33.475Z,16.04
2019-05-29T06:38:33.499Z,16.01
2019-05-29T06:39:33.413Z,15.92
2019-05-29T06:40:33.766Z,15.90
2019-05-29T06:41:33.554Z,16.20
2019-05-29T06:42:33.515Z,16.68
2019-05-29T06:43:32.200Z,16.93
2019-05-29T06:44:32.686Z,16.93
2019-05-29T06:45:32.178Z,16.57
2019-05-29T06:46:32.166Z,16.43
2019-05-29T06:47:32.210Z,15.55
2019-05-29T06:48:46.272Z,15.36
2019-05-29T06:49:33.921Z,15.29
2019-05-29T06:50:32.123Z,15.52
2019-05-29T06:51:32.128Z,15.24
2019-05-29T06:52:32.119Z,15.80
2019-05-29T06:53:32.146Z,16.51
2019-05-29T06:54:32.088Z,16.29
2019-05-29T06:55:32.113Z,15.62
2019-05-29T06:56:32.064Z,15.80
2019-05-29T06:57:32.074Z,16.46
2019-05-29T06:58:32.050Z,16.79
2019-05-29T06:59:32.070Z,17.27
2019-05-29T07:00:35.599Z,16.97
2019-05-29T07:01:33.193Z,17.33
2019-05-29T07:02:32.062Z,17.54
2019-05-29T07:03:32.106Z,16.99
2019-05-29T07:04:31.974Z,16.74
2019-05-29T07:05:31.967Z,16.65
2019-05-29T07:06:31.962Z,15.83
2019-05-29T07:07:31.955Z,15.65
2019-05-29T07:08:38.993Z,15.98
2019-05-29T07:09:32.968Z,16.32
2019-05-29T07:10:31.931Z,15.11
2019-05-29T07:11:31.923Z,15.59
2019-05-29T07:12:31.887Z,16.24
2019-05-29T07:13:34.913Z,16.74
2019-05-29T07:14:31.901Z,17.15
2019-05-29T07:15:31.936Z,16.97
2019-05-29T07:16:43.685Z,17.39
2019-05-29T07:17:32.827Z,17.14
2019-05-29T07:18:31.817Z,16.90
2019-05-29T07:19:47.417Z,17.57
2019-05-29T07:20:32.837Z,17.34
2019-05-29T07:21:31.792Z,17.97
2019-05-29T07:22:31.795Z,18.68
2019-05-29T07:23:31.768Z,18.86
2019-05-29T07:24:31.941Z,19.66
2019-05-29T07:25:31.761Z,19.40
2019-05-29T07:26:31.767Z,19.33
2019-05-29T07:27:31.723Z,19.00
2019-05-29T07:28:31.733Z,19.12
2019-05-29T07:29:31.710Z,18.47
2019-05-29T07:30:31.704Z,19.33
2019-05-29T07:31:31.693Z,19.69
2019-05-29T07:32:31.727Z,19.18
2019-05-29T07:33:31.652Z,18.63
2019-05-29T07:34:47.458Z,18.99
2019-05-29T07:35:32.675Z,18.66
2019-05-29T07:36:31.671Z,19.55
2019-05-29T07:37:31.640Z,20.04
2019-05-29T07:38:31.619Z,19.45
2019-05-29T07:39:31.603Z,19.34
2019-05-29T07:40:35.552Z,18.80
2019-05-29T07:41:31.584Z,18.71
2019-05-29T07:42:31.581Z,18.89
2019-05-29T07:43:31.577Z,18.33
2019-05-29T07:44:31.614Z,17.63
2019-05-29T07:45:31.626Z,17.52
2019-05-29T07:46:31.526Z,18.31
2019-05-29T07:47:31.625Z,18.18
2019-05-29T07:48:31.498Z,18.33
2019-05-29T07:49:39.053Z,18.71
2019-05-29T07:50:32.473Z,18.13
2019-05-29T07:51:31.463Z,18.66
2019-05-29T07:52:31.462Z,19.40
2019-05-29T07:53:33.676Z,20.34
2019-05-29T07:54:31.441Z,20.09
2019-05-29T07:55:31.429Z,19.85
2019-05-29T07:56:31.418Z,19.74
2019-05-29T07:57:31.414Z,19.94
2019-05-29T07:58:31.428Z,19.86
2019-05-29T07:59:31.381Z,20.34
2019-05-29T08:00:35.697Z,20.48
2019-05-29T08:01:32.794Z,20.21
2019-05-29T08:02:31.413Z,20.09
2019-05-29T08:03:31.465Z,18.92
2019-05-29T08:04:31.320Z,18.53
2019-05-29T08:05:31.398Z,18.50
2019-05-29T08:06:31.332Z,18.70
2019-05-29T08:07:31.324Z,19.16
2019-05-29T08:08:31.296Z,18.88
2019-05-29T08:09:31.325Z,19.92
2019-05-29T08:10:31.272Z,20.22
2019-05-29T08:11:31.252Z,19.99
2019-05-29T08:12:31.273Z,19.89
2019-05-29T08:13:31.235Z,19.63
2019-05-29T08:14:31.265Z,20.25
2019-05-29T08:15:31.304Z,20.48
2019-05-29T08:16:31.279Z,20.19
2019-05-29T08:17:31.211Z,19.55
2019-05-29T08:18:31.867Z,20.04
2019-05-29T08:19:31.162Z,19.89
2019-05-29T08:20:31.172Z,20.07
2019-05-29T08:21:31.170Z,20.44
2019-05-29T08:22:34.618Z,20.58
2019-05-29T08:23:31.123Z,20.99
2019-05-29T08:24:31.114Z,20.63
2019-05-29T08:25:31.148Z,20.29
2019-05-29T08:26:31.095Z,19.82
2019-05-29T08:27:31.082Z,19.69
2019-05-29T08:28:31.092Z,18.40
2019-05-29T08:29:31.098Z,18.55
2019-05-29T08:30:31.053Z,18.34
2019-05-29T08:31:31.765Z,17.67
2019-05-29T08:32:31.048Z,16.50
2019-05-29T08:33:31.024Z,15.95
2019-05-29T08:34:31.025Z,16.05
2019-05-29T08:35:31.017Z,16.32
2019-05-29T08:36:31.002Z,16.23
2019-05-29T08:37:31.064Z,16.41
2019-05-29T08:38:30.974Z,16.97
2019-05-29T08:39:36.117Z,19.00
2019-05-29T08:40:31.950Z,18.84
2019-05-29T08:41:31.700Z,19.94
2019-05-29T08:42:30.922Z,20.67
2019-05-29T08:43:30.934Z,20.41
2019-05-29T08:44:30.906Z,20.48
2019-05-29T08:45:31.910Z,21.12
2019-05-29T08:46:33.323Z,20.50
2019-05-29T08:47:30.887Z,19.14
2019-05-29T08:48:30.897Z,18.31
2019-05-29T08:49:30.854Z,18.11
2019-05-29T08:50:31.418Z,18.04
2019-05-29T08:51:30.842Z,17.85
2019-05-29T08:52:30.826Z,18.10
2019-05-29T08:53:30.843Z,19.70
2019-05-29T08:54:30.804Z,19.84
2019-05-29T08:55:30.772Z,18.44
2019-05-29T08:56:30.774Z,17.70
2019-05-29T08:57:30.760Z,17.41
2019-05-29T08:58:30.912Z,17.23
2019-05-29T08:59:30.741Z,17.30
2019-05-29T09:00:30.775Z,19.04
2019-05-29T09:01:30.722Z,20.22
2019-05-29T09:02:30.975Z,20.06
2019-05-29T09:03:30.690Z,20.31
2019-05-29T09:04:30.718Z,20.99
2019-05-29T09:05:30.820Z,19.95
2019-05-29T09:06:30.692Z,20.00
2019-05-29T09:07:30.660Z,20.97
2019-05-29T09:08:30.657Z,21.54
2019-05-29T09:09:30.642Z,21.06
2019-05-29T09:10:30.661Z,22.04
2019-05-29T09:11:30.625Z,23.13
2019-05-29T09:12:30.655Z,23.81
2019-05-29T09:13:30.589Z,24.06
2019-05-29T09:14:30.592Z,24.47
2019-05-29T09:15:30.658Z,23.59
2019-05-29T09:16:30.587Z,22.78
2019-05-29T09:17:30.552Z,21.54
2019-05-29T09:18:30.544Z,22.73
2019-05-29T09:19:30.527Z,22.45
2019-05-29T09:20:50.155Z,20.85
2019-05-29T09:21:31.519Z,18.90
2019-05-29T09:22:30.515Z,18.25
2019-05-29T09:23:30.506Z,17.65
2019-05-29T09:24:30.502Z,17.63
2019-05-29T09:25:30.528Z,17.42
2019-05-29T09:26:30.478Z,17.12
2019-05-29T09:27:30.456Z,16.97
2019-05-29T09:28:30.458Z,17.20
2019-05-29T09:29:30.438Z,19.11
2019-05-29T09:30:30.451Z,19.76
2019-05-29T09:31:30.433Z,20.18
2019-05-29T09:32:48.748Z,19.95
2019-05-29T09:33:31.397Z,19.45
2019-05-29T09:34:30.404Z,19.67
2019-05-29T09:35:30.376Z,20.44
2019-05-29T09:36:30.408Z,21.22
2019-05-29T09:37:30.355Z,21.77
2019-05-29T09:38:30.364Z,22.65
2019-05-29T09:39:30.340Z,23.44
2019-05-29T09:40:30.324Z,23.47
2019-05-29T09:41:30.405Z,22.87
2019-05-29T09:42:30.325Z,22.15
2019-05-29T09:43:30.943Z,22.83
2019-05-29T09:44:38.456Z,23.93
2019-05-29T09:45:31.292Z,24.39
2019-05-29T09:46:30.380Z,24.54
2019-05-29T09:47:30.276Z,23.71
2019-05-29T09:48:30.270Z,22.44
2019-05-29T09:49:30.235Z,20.74
2019-05-29T09:50:48.785Z,19.16
2019-05-29T09:51:31.216Z,19.74
2019-05-29T09:52:30.921Z,20.47
2019-05-29T09:53:30.238Z,21.06
2019-05-29T09:54:30.367Z,21.82
2019-05-29T09:55:30.230Z,21.54
2019-05-29T09:56:30.170Z,22.55
2019-05-29T09:57:30.159Z,23.68
2019-05-29T09:58:30.185Z,23.50
2019-05-29T09:59:30.320Z,23.09
2019-05-29T10:00:30.128Z,24.02
2019-05-29T10:01:30.102Z,24.45
2019-05-29T10:02:30.098Z,24.96
2019-05-29T10:03:30.120Z,25.11
2019-05-29T10:04:30.085Z,24.68
2019-05-29T10:05:30.094Z,23.87
2019-05-29T10:06:30.080Z,23.71
2019-05-29T10:07:30.044Z,21.57
2019-05-29T10:08:30.026Z,21.24
2019-05-29T10:09:30.083Z,20.43
2019-05-29T10:10:30.035Z,19.99
2019-05-29T10:11:30.007Z,20.22
2019-05-29T10:12:29.995Z,22.23
2019-05-29T10:13:29.996Z,23.59
2019-05-29T10:14:29.999Z,24.85
2019-05-29T10:15:29.965Z,24.78
2019-05-29T10:16:29.953Z,23.63
2019-05-29T10:17:29.940Z,23.12
2019-05-29T10:18:32.502Z,22.47
2019-05-29T10:19:29.975Z,23.06
2019-05-29T10:20:29.920Z,23.21
2019-05-29T10:21:40.348Z,23.00
2019-05-29T10:22:30.897Z,22.57
2019-05-29T10:23:29.890Z,22.70
2019-05-29T10:24:32.331Z,22.73
2019-05-29T10:25:29.876Z,21.80
2019-05-29T10:26:29.893Z,22.87
2019-05-29T10:27:29.885Z,24.29
2019-05-29T10:28:48.425Z,25.17
2019-05-29T10:29:30.817Z,25.26
2019-05-29T10:30:29.859Z,25.83
2019-05-29T10:31:29.814Z,26.15
2019-05-29T10:32:29.803Z,26.31
2019-05-29T10:33:29.804Z,25.93
2019-05-29T10:34:29.793Z,24.96
2019-05-29T10:35:29.756Z,23.68
2019-05-29T10:36:29.786Z,23.40
2019-05-29T10:37:29.748Z,22.48
2019-05-29T10:38:29.735Z,22.78
2019-05-29T10:39:29.730Z,23.93
2019-05-29T10:40:29.729Z,24.36
2019-05-29T10:41:29.730Z,24.84
2019-05-29T10:42:29.690Z,24.78
2019-05-29T10:43:34.254Z,24.05
2019-05-29T10:44:30.684Z,23.91
2019-05-29T10:45:29.677Z,23.50
2019-05-29T10:46:29.657Z,23.23
2019-05-29T10:47:29.681Z,21.58
2019-05-29T10:48:29.665Z,20.95
2019-05-29T10:49:29.633Z,20.63
2019-05-29T10:50:29.617Z,20.39
2019-05-29T10:51:29.599Z,19.81
2019-05-29T10:52:29.604Z,19.51
2019-05-29T10:53:29.622Z,20.36
2019-05-29T10:54:29.569Z,20.82
2019-05-29T10:55:29.560Z,22.13
2019-05-29T10:56:29.563Z,22.07
2019-05-29T10:57:29.541Z,22.94
2019-05-29T10:58:29.577Z,23.28
2019-05-29T10:59:29.534Z,24.28
2019-05-29T11:00:29.524Z,24.69
2019-05-29T11:01:29.506Z,24.47
2019-05-29T11:02:29.480Z,23.54
2019-05-29T11:03:29.519Z,23.56
2019-05-29T11:04:29.635Z,23.65
2019-05-29T11:05:29.470Z,22.43
2019-05-29T11:06:29.456Z,23.12
2019-05-29T11:07:29.423Z,23.50
2019-05-29T11:08:29.447Z,23.62
2019-05-29T11:09:43.459Z,23.24
2019-05-29T11:10:30.403Z,22.57
2019-05-29T11:11:29.403Z,21.39
2019-05-29T11:12:29.451Z,20.80
2019-05-29T11:13:29.378Z,19.85
2019-05-29T11:14:29.393Z,19.74
2019-05-29T11:15:29.360Z,20.41
2019-05-29T11:16:29.365Z,20.80
2019-05-29T11:17:29.340Z,20.82
2019-05-29T11:18:29.341Z,20.00
2019-05-29T11:19:29.332Z,19.33
2019-05-29T11:20:29.378Z,20.26
2019-05-29T11:21:29.316Z,21.60
2019-05-29T11:22:29.298Z,21.42
2019-05-29T11:23:29.274Z,22.02
2019-05-29T11:24:29.286Z,22.32
2019-05-29T11:25:29.283Z,22.50
2019-05-29T11:26:29.263Z,21.95
2019-05-29T11:27:29.373Z,22.11
2019-05-29T11:28:29.223Z,22.30
2019-05-29T11:29:29.219Z,22.62
2019-05-29T11:30:29.243Z,23.55
2019-05-29T11:31:29.247Z,24.23
2019-05-29T11:32:29.187Z,24.86
2019-05-29T11:33:29.166Z,25.44
2019-05-29T11:34:29.167Z,25.70
2019-05-29T11:35:29.153Z,24.50
2019-05-29T11:36:29.163Z,24.99
2019-05-29T11:37:29.133Z,25.60
2019-05-29T11:38:29.134Z,26.34
2019-05-29T11:39:29.198Z,26.62
2019-05-29T11:40:29.339Z,25.44
2019-05-29T11:41:29.127Z,25.17
2019-05-29T11:42:29.112Z,25.58
2019-05-29T11:43:29.105Z,25.63
2019-05-29T11:44:29.066Z,25.48
2019-05-29T11:45:29.100Z,25.85
2019-05-29T11:46:29.045Z,24.81
2019-05-29T11:47:29.073Z,25.17
2019-05-29T11:48:29.041Z,25.47
2019-05-29T11:49:29.024Z,25.59
2019-05-29T11:50:29.003Z,24.40
2019-05-29T11:51:31.717Z,23.62
2019-05-29T11:53:59.602Z,23.17
2019-05-29T11:55:08.108Z,23.50
2019-05-29T11:56:23.369Z,23.54
2019-05-29T11:56:42.129Z,23.39
2019-05-29T11:57:42.137Z,23.84
2019-05-29T11:58:42.130Z,24.21
2019-05-29T11:59:42.094Z,25.07
2019-05-29T12:00:42.093Z,24.92
2019-05-29T12:01:50.236Z,24.66
2019-05-29T12:02:43.116Z,24.08
2019-05-29T12:04:05.319Z,23.62
2019-05-29T12:04:43.096Z,24.08
2019-05-29T12:05:42.024Z,23.77
2019-05-29T12:06:42.042Z,22.90
2019-05-29T12:07:42.029Z,22.88
2019-05-29T12:08:42.047Z,24.11
2019-05-29T12:09:42.044Z,24.60
2019-05-29T12:10:41.996Z,25.40
2019-05-29T12:11:41.976Z,26.03
2019-05-29T12:12:42.011Z,26.40
2019-05-29T12:13:42.740Z,26.40
2019-05-29T12:14:58.944Z,26.89
2019-05-29T12:15:42.968Z,27.15
2019-05-29T12:16:41.934Z,26.29
2019-05-29T12:17:41.975Z,25.91
2019-05-29T12:18:41.916Z,25.81
2019-05-29T12:19:41.922Z,26.31
2019-05-29T12:20:41.900Z,26.68
2019-05-29T12:21:42.896Z,26.84
2019-05-29T12:23:07.257Z,25.77
2019-05-29T12:23:42.864Z,26.03
2019-05-29T12:24:41.892Z,26.81
2019-05-29T12:25:41.850Z,26.25
2019-05-29T12:26:41.867Z,25.16
2019-05-29T12:27:41.815Z,23.65
2019-05-29T12:28:41.815Z,22.85
2019-05-29T12:29:41.844Z,23.02
2019-05-29T12:30:41.835Z,24.28
2019-05-29T12:31:41.793Z,24.28
2019-05-29T12:32:41.783Z,24.35
2019-05-29T12:33:41.769Z,23.65
2019-05-29T12:34:53.268Z,22.96
2019-05-29T12:35:42.770Z,22.11
2019-05-29T12:36:41.723Z,21.20
2019-05-29T12:37:41.947Z,20.97
2019-05-29T12:38:41.717Z,21.00
2019-05-29T12:39:41.692Z,21.15
2019-05-29T12:40:41.718Z,21.15
2019-05-29T12:41:41.688Z,21.83
2019-05-29T12:42:44.766Z,23.17
2019-05-29T12:43:41.674Z,23.98
2019-05-29T12:44:41.671Z,24.42
2019-05-29T12:45:41.707Z,24.74
2019-05-29T12:46:41.623Z,25.26
2019-05-29T12:47:41.676Z,25.80
2019-05-29T12:48:41.608Z,26.22
2019-05-29T12:49:41.611Z,26.41
2019-05-29T12:50:41.590Z,25.55
2019-05-29T12:51:41.634Z,26.02
2019-05-29T12:52:41.549Z,26.26
2019-05-29T12:53:41.546Z,24.88
2019-05-29T12:54:41.541Z,23.41
2019-05-29T12:55:41.526Z,22.73
2019-05-29T12:56:41.507Z,21.32
2019-05-29T12:57:41.553Z,20.95
2019-05-29T12:58:41.517Z,21.03
2019-05-29T12:59:41.520Z,21.92
2019-05-29T13:00:41.490Z,23.25
2019-05-29T13:01:41.535Z,24.24
2019-05-29T13:02:41.459Z,24.51
2019-05-29T13:03:45.037Z,25.10